sensor_id;sensor_type;location;lat;lon;timestamp;temperature;humidity
27544;DHT22;17996;51.056;3.656;2023-02-28T00:00:30;2.80;99.90
27544;DHT22;17996;51.056;3.656;2023-02-28T00:02:55;2.80;99.90
27544;DHT22;17996;51.056;3.656;2023-02-28T00:05:23;2.80;99.90
27544;DHT22;17996;51.056;3.656;2023-02-28T00:07:49;3.00;99.90
27544;DHT22;17996;51.056;3.656;2023-02-28T00:10:18;2.80;99.90
27544;DHT22;17996;51.056;3.656;2023-02-28T00:12:51;2.70;99.90
27544;DHT22;17996;51.056;3.656;2023-02-28T00:15:17;2.70;99.90
27544;DHT22;17996;51.056;3.656;2023-02-28T00:17:43;2.60;99.90
27544;DHT22;17996;51.056;3.656;2023-02-28T00:20:10;2.60;99.90
27544;DHT22;17996;51.056;3.656;2023-02-28T00:22:42;2.60;99.90
27544;DHT22;17996;51.056;3.656;2023-02-28T00:25:10;2.50;99.90
27544;DHT22;17996;51.056;3.656;2023-02-28T00:27:37;2.50;99.90
27544;DHT22;17996;51.056;3.656;2023-02-28T00:30:04;2.50;99.90
27544;DHT22;17996;51.056;3.656;2023-02-28T00:32:30;2.50;99.90
27544;DHT22;17996;51.056;3.656;2023-02-28T00:34:56;2.50;99.90
27544;DHT22;17996;51.056;3.656;2023-02-28T00:37:21;2.50;99.90
27544;DHT22;17996;51.056;3.656;2023-02-28T00:39:47;2.50;99.90
27544;DHT22;17996;51.056;3.656;2023-02-28T00:42:13;2.50;99.90
27544;DHT22;17996;51.056;3.656;2023-02-28T00:44:39;2.40;99.90
27544;DHT22;17996;51.056;3.656;2023-02-28T00:47:04;2.40;99.90
27544;DHT22;17996;51.056;3.656;2023-02-28T00:49:30;2.50;99.90
27544;DHT22;17996;51.056;3.656;2023-02-28T00:51:56;2.40;99.90
27544;DHT22;17996;51.056;3.656;2023-02-28T00:54:23;2.40;99.90
27544;DHT22;17996;51.056;3.656;2023-02-28T00:56:49;2.50;99.90
27544;DHT22;17996;51.056;3.656;2023-02-28T00:59:16;2.40;99.90
27544;DHT22;17996;51.056;3.656;2023-02-28T01:01:42;2.40;99.90
27544;DHT22;17996;51.056;3.656;2023-02-28T01:04:08;2.40;99.90
27544;DHT22;17996;51.056;3.656;2023-02-28T01:06:34;2.40;99.90
27544;DHT22;17996;51.056;3.656;2023-02-28T01:09:02;2.40;99.90
27544;DHT22;17996;51.056;3.656;2023-02-28T01:11:27;2.40;99.90
27544;DHT22;17996;51.056;3.656;2023-02-28T01:13:53;2.40;99.90
27544;DHT22;17996;51.056;3.656;2023-02-28T01:16:19;2.40;99.90
27544;DHT22;17996;51.056;3.656;2023-02-28T01:18:44;2.40;99.90
27544;DHT22;17996;51.056;3.656;2023-02-28T01:21:14;2.30;99.90
27544;DHT22;17996;51.056;3.656;2023-02-28T01:23:40;2.30;99.90
27544;DHT22;17996;51.056;3.656;2023-02-28T01:26:07;2.30;99.90
27544;DHT22;17996;51.056;3.656;2023-02-28T01:28:34;2.30;99.90
27544;DHT22;17996;51.056;3.656;2023-02-28T01:31:00;2.20;99.90
27544;DHT22;17996;51.056;3.656;2023-02-28T01:33:26;2.20;99.90
27544;DHT22;17996;51.056;3.656;2023-02-28T01:36:24;2.20;99.90
27544;DHT22;17996;51.056;3.656;2023-02-28T01:38:50;2.10;99.90
27544;DHT22;17996;51.056;3.656;2023-02-28T01:41:29;2.10;99.90
27544;DHT22;17996;51.056;3.656;2023-02-28T01:44:53;2.20;99.90
27544;DHT22;17996;51.056;3.656;2023-02-28T01:46:51;2.20;99.90
27544;DHT22;17996;51.056;3.656;2023-02-28T01:49:18;2.20;99.90
27544;DHT22;17996;51.056;3.656;2023-02-28T01:51:46;2.30;99.90
27544;DHT22;17996;51.056;3.656;2023-02-28T01:54:28;2.40;99.90
27544;DHT22;17996;51.056;3.656;2023-02-28T01:56:58;2.30;99.90
27544;DHT22;17996;51.056;3.656;2023-02-28T01:59:32;2.30;99.90
27544;DHT22;17996;51.056;3.656;2023-02-28T02:02:01;2.30;99.90
27544;DHT22;17996;51.056;3.656;2023-02-28T02:04:37;2.20;99.90
27544;DHT22;17996;51.056;3.656;2023-02-28T02:07:05;2.10;99.90
27544;DHT22;17996;51.056;3.656;2023-02-28T02:09:31;2.00;99.90
27544;DHT22;17996;51.056;3.656;2023-02-28T02:11:57;2.00;99.90
27544;DHT22;17996;51.056;3.656;2023-02-28T02:14:40;2.00;99.90
27544;DHT22;17996;51.056;3.656;2023-02-28T02:17:34;2.10;99.90
27544;DHT22;17996;51.056;3.656;2023-02-28T02:20:19;2.10;99.90
27544;DHT22;17996;51.056;3.656;2023-02-28T02:26:01;2.00;99.90
27544;DHT22;17996;51.056;3.656;2023-02-28T02:31:27;2.00;99.90
27544;DHT22;17996;51.056;3.656;2023-02-28T02:36:42;1.90;99.90
27544;DHT22;17996;51.056;3.656;2023-02-28T02:39:31;1.80;99.90
27544;DHT22;17996;51.056;3.656;2023-02-28T02:42:01;1.80;99.90
27544;DHT22;17996;51.056;3.656;2023-02-28T02:44:36;1.70;99.90
27544;DHT22;17996;51.056;3.656;2023-02-28T02:47:11;1.70;99.90
27544;DHT22;17996;51.056;3.656;2023-02-28T02:49:40;1.70;99.90
27544;DHT22;17996;51.056;3.656;2023-02-28T02:52:11;1.90;99.90
27544;DHT22;17996;51.056;3.656;2023-02-28T02:54:41;1.90;99.90
27544;DHT22;17996;51.056;3.656;2023-02-28T02:57:20;1.90;99.90
27544;DHT22;17996;51.056;3.656;2023-02-28T02:59:50;2.00;99.90
27544;DHT22;17996;51.056;3.656;2023-02-28T03:02:16;2.00;99.90
27544;DHT22;17996;51.056;3.656;2023-02-28T03:04:51;1.90;99.90
27544;DHT22;17996;51.056;3.656;2023-02-28T03:07:17;1.90;99.90
27544;DHT22;17996;51.056;3.656;2023-02-28T03:09:54;2.00;99.90
27544;DHT22;17996;51.056;3.656;2023-02-28T03:12:20;2.00;99.90
27544;DHT22;17996;51.056;3.656;2023-02-28T03:15:03;2.00;99.90
27544;DHT22;17996;51.056;3.656;2023-02-28T03:20:38;1.80;99.90
27544;DHT22;17996;51.056;3.656;2023-02-28T03:23:20;1.70;99.90
27544;DHT22;17996;51.056;3.656;2023-02-28T03:29:05;1.80;99.90
27544;DHT22;17996;51.056;3.656;2023-02-28T03:34:31;2.00;99.90
27544;DHT22;17996;51.056;3.656;2023-02-28T03:37:03;2.10;99.90
27544;DHT22;17996;51.056;3.656;2023-02-28T03:39:59;2.10;99.90
27544;DHT22;17996;51.056;3.656;2023-02-28T03:42:28;2.10;99.90
27544;DHT22;17996;51.056;3.656;2023-02-28T03:45:02;2.10;99.90
27544;DHT22;17996;51.056;3.656;2023-02-28T03:47:55;2.20;99.90
27544;DHT22;17996;51.056;3.656;2023-02-28T03:50:42;2.30;99.90
27544;DHT22;17996;51.056;3.656;2023-02-28T03:53:28;2.30;99.90
27544;DHT22;17996;51.056;3.656;2023-02-28T03:56:31;2.30;99.90
27544;DHT22;17996;51.056;3.656;2023-02-28T03:59:10;2.40;99.90
27544;DHT22;17996;51.056;3.656;2023-02-28T04:01:43;2.30;99.90
27544;DHT22;17996;51.056;3.656;2023-02-28T04:04:11;2.30;99.90
27544;DHT22;17996;51.056;3.656;2023-02-28T04:06:37;2.20;99.90
27544;DHT22;17996;51.056;3.656;2023-02-28T04:09:05;2.20;99.90
27544;DHT22;17996;51.056;3.656;2023-02-28T04:11:50;2.30;99.90
27544;DHT22;17996;51.056;3.656;2023-02-28T04:14:17;2.30;99.90
27544;DHT22;17996;51.056;3.656;2023-02-28T04:16:43;2.30;99.90
27544;DHT22;17996;51.056;3.656;2023-02-28T04:19:11;2.30;99.90
27544;DHT22;17996;51.056;3.656;2023-02-28T04:21:40;2.30;99.90
27544;DHT22;17996;51.056;3.656;2023-02-28T04:24:11;2.40;99.90
27544;DHT22;17996;51.056;3.656;2023-02-28T04:26:41;2.50;99.90
27544;DHT22;17996;51.056;3.656;2023-02-28T04:29:09;2.50;99.90
27544;DHT22;17996;51.056;3.656;2023-02-28T04:31:35;2.60;99.90
27544;DHT22;17996;51.056;3.656;2023-02-28T04:34:01;2.80;99.90
27544;DHT22;17996;51.056;3.656;2023-02-28T04:36:27;2.70;99.90
27544;DHT22;17996;51.056;3.656;2023-02-28T04:38:53;2.70;99.90
27544;DHT22;17996;51.056;3.656;2023-02-28T04:41:20;2.70;99.90
27544;DHT22;17996;51.056;3.656;2023-02-28T04:43:46;2.80;99.90
27544;DHT22;17996;51.056;3.656;2023-02-28T04:46:12;2.80;99.90
27544;DHT22;17996;51.056;3.656;2023-02-28T04:48:39;2.90;99.90
27544;DHT22;17996;51.056;3.656;2023-02-28T04:51:10;2.90;99.90
27544;DHT22;17996;51.056;3.656;2023-02-28T04:53:37;2.90;99.90
27544;DHT22;17996;51.056;3.656;2023-02-28T04:56:05;2.90;99.90
27544;DHT22;17996;51.056;3.656;2023-02-28T04:58:32;3.00;99.90
27544;DHT22;17996;51.056;3.656;2023-02-28T05:03:41;3.10;99.90
27544;DHT22;17996;51.056;3.656;2023-02-28T05:06:08;3.10;99.90
27544;DHT22;17996;51.056;3.656;2023-02-28T05:08:34;3.10;99.90
27544;DHT22;17996;51.056;3.656;2023-02-28T05:11:00;3.10;99.90
27544;DHT22;17996;51.056;3.656;2023-02-28T05:13:27;3.20;99.90
27544;DHT22;17996;51.056;3.656;2023-02-28T05:15:53;3.20;99.90
27544;DHT22;17996;51.056;3.656;2023-02-28T05:18:19;3.20;99.90
27544;DHT22;17996;51.056;3.656;2023-02-28T05:20:44;3.20;99.90
27544;DHT22;17996;51.056;3.656;2023-02-28T05:23:14;3.30;99.90
27544;DHT22;17996;51.056;3.656;2023-02-28T05:25:40;3.30;99.90
27544;DHT22;17996;51.056;3.656;2023-02-28T05:28:06;3.30;99.90
27544;DHT22;17996;51.056;3.656;2023-02-28T05:30:33;3.30;99.90
27544;DHT22;17996;51.056;3.656;2023-02-28T05:32:59;3.30;99.90
27544;DHT22;17996;51.056;3.656;2023-02-28T05:35:25;3.40;99.90
27544;DHT22;17996;51.056;3.656;2023-02-28T05:37:51;3.40;99.90
27544;DHT22;17996;51.056;3.656;2023-02-28T05:40:17;3.40;99.90
27544;DHT22;17996;51.056;3.656;2023-02-28T05:42:44;3.50;99.90
27544;DHT22;17996;51.056;3.656;2023-02-28T05:45:10;3.50;99.90
27544;DHT22;17996;51.056;3.656;2023-02-28T05:47:36;3.50;99.90
27544;DHT22;17996;51.056;3.656;2023-02-28T05:50:03;3.50;99.90
27544;DHT22;17996;51.056;3.656;2023-02-28T05:52:28;3.60;99.90
27544;DHT22;17996;51.056;3.656;2023-02-28T05:54:55;3.60;99.90
27544;DHT22;17996;51.056;3.656;2023-02-28T05:57:21;3.60;99.90
27544;DHT22;17996;51.056;3.656;2023-02-28T05:59:47;3.60;99.90
27544;DHT22;17996;51.056;3.656;2023-02-28T06:02:15;3.60;99.90
27544;DHT22;17996;51.056;3.656;2023-02-28T06:04:42;3.50;99.90
27544;DHT22;17996;51.056;3.656;2023-02-28T06:07:08;3.50;99.90
27544;DHT22;17996;51.056;3.656;2023-02-28T06:09:35;3.40;99.90
27544;DHT22;17996;51.056;3.656;2023-02-28T06:12:03;3.60;99.90
27544;DHT22;17996;51.056;3.656;2023-02-28T06:14:32;3.50;99.90
27544;DHT22;17996;51.056;3.656;2023-02-28T06:16:59;3.50;99.90
27544;DHT22;17996;51.056;3.656;2023-02-28T06:19:25;3.50;99.90
27544;DHT22;17996;51.056;3.656;2023-02-28T06:21:52;3.50;99.90
27544;DHT22;17996;51.056;3.656;2023-02-28T06:24:21;3.60;99.90
27544;DHT22;17996;51.056;3.656;2023-02-28T06:26:48;3.40;99.90
27544;DHT22;17996;51.056;3.656;2023-02-28T06:29:14;3.50;99.90
27544;DHT22;17996;51.056;3.656;2023-02-28T06:31:46;3.50;99.90
27544;DHT22;17996;51.056;3.656;2023-02-28T06:34:13;3.60;99.90
27544;DHT22;17996;51.056;3.656;2023-02-28T06:36:40;3.50;99.90
27544;DHT22;17996;51.056;3.656;2023-02-28T06:39:06;3.60;99.90
27544;DHT22;17996;51.056;3.656;2023-02-28T06:41:32;3.60;99.90
27544;DHT22;17996;51.056;3.656;2023-02-28T06:44:14;3.60;99.90
27544;DHT22;17996;51.056;3.656;2023-02-28T06:46:42;3.60;99.90
27544;DHT22;17996;51.056;3.656;2023-02-28T06:49:08;3.60;99.90
27544;DHT22;17996;51.056;3.656;2023-02-28T06:51:35;3.60;99.90
27544;DHT22;17996;51.056;3.656;2023-02-28T06:54:01;3.70;99.90
27544;DHT22;17996;51.056;3.656;2023-02-28T06:56:27;3.70;99.90
27544;DHT22;17996;51.056;3.656;2023-02-28T06:58:53;3.70;99.90
27544;DHT22;17996;51.056;3.656;2023-02-28T07:01:18;3.70;99.90
27544;DHT22;17996;51.056;3.656;2023-02-28T07:03:45;3.70;99.90
27544;DHT22;17996;51.056;3.656;2023-02-28T07:06:12;3.80;99.90
27544;DHT22;17996;51.056;3.656;2023-02-28T07:08:38;3.90;99.90
27544;DHT22;17996;51.056;3.656;2023-02-28T07:11:05;3.80;99.90
27544;DHT22;17996;51.056;3.656;2023-02-28T07:13:31;3.90;99.90
27544;DHT22;17996;51.056;3.656;2023-02-28T07:16:02;4.10;99.90
27544;DHT22;17996;51.056;3.656;2023-02-28T07:18:29;3.90;99.90
27544;DHT22;17996;51.056;3.656;2023-02-28T07:20:54;3.90;99.90
27544;DHT22;17996;51.056;3.656;2023-02-28T07:23:21;4.00;99.90
27544;DHT22;17996;51.056;3.656;2023-02-28T07:25:47;4.00;99.90
27544;DHT22;17996;51.056;3.656;2023-02-28T07:28:13;4.10;99.90
27544;DHT22;17996;51.056;3.656;2023-02-28T07:30:39;4.10;99.90
27544;DHT22;17996;51.056;3.656;2023-02-28T07:33:05;4.10;99.90
27544;DHT22;17996;51.056;3.656;2023-02-28T07:35:30;4.10;99.90
27544;DHT22;17996;51.056;3.656;2023-02-28T07:38:00;4.00;99.90
27544;DHT22;17996;51.056;3.656;2023-02-28T07:40:25;4.00;99.90
27544;DHT22;17996;51.056;3.656;2023-02-28T07:42:51;4.00;99.90
27544;DHT22;17996;51.056;3.656;2023-02-28T07:45:17;4.10;99.90
27544;DHT22;17996;51.056;3.656;2023-02-28T07:47:43;4.10;99.90
27544;DHT22;17996;51.056;3.656;2023-02-28T07:50:11;4.10;99.90
27544;DHT22;17996;51.056;3.656;2023-02-28T07:52:37;4.10;99.90
27544;DHT22;17996;51.056;3.656;2023-02-28T07:55:05;4.40;99.90
27544;DHT22;17996;51.056;3.656;2023-02-28T07:57:32;4.40;99.90
27544;DHT22;17996;51.056;3.656;2023-02-28T07:59:58;4.40;99.90
27544;DHT22;17996;51.056;3.656;2023-02-28T08:02:24;4.40;99.90
27544;DHT22;17996;51.056;3.656;2023-02-28T08:04:50;4.40;99.90
27544;DHT22;17996;51.056;3.656;2023-02-28T08:07:16;4.50;99.90
27544;DHT22;17996;51.056;3.656;2023-02-28T08:09:43;4.50;99.90
27544;DHT22;17996;51.056;3.656;2023-02-28T08:12:10;4.40;99.90
27544;DHT22;17996;51.056;3.656;2023-02-28T08:14:37;4.40;99.90
27544;DHT22;17996;51.056;3.656;2023-02-28T08:17:03;4.40;99.90
27544;DHT22;17996;51.056;3.656;2023-02-28T08:19:29;4.40;99.90
27544;DHT22;17996;51.056;3.656;2023-02-28T08:21:56;4.40;99.90
27544;DHT22;17996;51.056;3.656;2023-02-28T08:24:22;4.50;99.90
27544;DHT22;17996;51.056;3.656;2023-02-28T08:26:49;4.50;99.90
27544;DHT22;17996;51.056;3.656;2023-02-28T08:29:15;4.50;99.90
27544;DHT22;17996;51.056;3.656;2023-02-28T08:31:41;4.60;99.90
27544;DHT22;17996;51.056;3.656;2023-02-28T08:34:12;4.70;99.90
27544;DHT22;17996;51.056;3.656;2023-02-28T08:36:39;4.60;99.90
27544;DHT22;17996;51.056;3.656;2023-02-28T08:39:05;4.60;99.90
27544;DHT22;17996;51.056;3.656;2023-02-28T08:41:31;4.60;99.90
27544;DHT22;17996;51.056;3.656;2023-02-28T08:43:57;4.80;99.90
27544;DHT22;17996;51.056;3.656;2023-02-28T08:46:24;4.60;99.90
27544;DHT22;17996;51.056;3.656;2023-02-28T08:48:54;4.60;99.90
27544;DHT22;17996;51.056;3.656;2023-02-28T08:51:21;4.50;99.90
27544;DHT22;17996;51.056;3.656;2023-02-28T08:53:52;4.70;99.90
27544;DHT22;17996;51.056;3.656;2023-02-28T08:56:19;4.60;99.90
27544;DHT22;17996;51.056;3.656;2023-02-28T08:58:46;4.50;99.90
27544;DHT22;17996;51.056;3.656;2023-02-28T09:01:15;4.50;99.90
27544;DHT22;17996;51.056;3.656;2023-02-28T09:03:41;4.50;99.90
27544;DHT22;17996;51.056;3.656;2023-02-28T09:06:08;4.50;99.90
27544;DHT22;17996;51.056;3.656;2023-02-28T09:08:34;4.60;99.90
27544;DHT22;17996;51.056;3.656;2023-02-28T09:11:00;4.70;99.90
27544;DHT22;17996;51.056;3.656;2023-02-28T09:13:27;4.70;99.90
27544;DHT22;17996;51.056;3.656;2023-02-28T09:15:54;4.80;99.90
27544;DHT22;17996;51.056;3.656;2023-02-28T09:18:20;4.70;99.90
27544;DHT22;17996;51.056;3.656;2023-02-28T09:20:46;4.80;99.90
27544;DHT22;17996;51.056;3.656;2023-02-28T09:23:12;4.90;99.90
27544;DHT22;17996;51.056;3.656;2023-02-28T09:25:48;5.00;99.90
27544;DHT22;17996;51.056;3.656;2023-02-28T09:28:14;5.10;99.90
27544;DHT22;17996;51.056;3.656;2023-02-28T09:30:47;5.10;99.90
27544;DHT22;17996;51.056;3.656;2023-02-28T09:33:13;5.20;99.90
27544;DHT22;17996;51.056;3.656;2023-02-28T09:35:39;5.30;99.90
27544;DHT22;17996;51.056;3.656;2023-02-28T09:38:05;5.40;99.90
27544;DHT22;17996;51.056;3.656;2023-02-28T09:43:25;5.40;99.90
27544;DHT22;17996;51.056;3.656;2023-02-28T09:45:56;5.30;99.90
27544;DHT22;17996;51.056;3.656;2023-02-28T09:48:32;5.30;99.90
27544;DHT22;17996;51.056;3.656;2023-02-28T09:51:04;5.60;99.90
27544;DHT22;17996;51.056;3.656;2023-02-28T09:53:37;5.30;99.90
27544;DHT22;17996;51.056;3.656;2023-02-28T09:56:08;5.20;99.90
27544;DHT22;17996;51.056;3.656;2023-02-28T09:58:54;5.30;99.90
27544;DHT22;17996;51.056;3.656;2023-02-28T10:06:50;5.40;99.90
27544;DHT22;17996;51.056;3.656;2023-02-28T10:09:25;5.40;99.90
27544;DHT22;17996;51.056;3.656;2023-02-28T10:11:53;5.40;99.90
27544;DHT22;17996;51.056;3.656;2023-02-28T10:14:22;5.40;99.90
27544;DHT22;17996;51.056;3.656;2023-02-28T10:16:53;5.40;99.90
27544;DHT22;17996;51.056;3.656;2023-02-28T10:24:47;5.50;99.90
27544;DHT22;17996;51.056;3.656;2023-02-28T10:29:44;5.30;99.90
27544;DHT22;17996;51.056;3.656;2023-02-28T10:32:14;5.40;99.90
27544;DHT22;17996;51.056;3.656;2023-02-28T10:34:41;5.60;99.90
27544;DHT22;17996;51.056;3.656;2023-02-28T10:37:07;5.70;99.90
27544;DHT22;17996;51.056;3.656;2023-02-28T10:42:28;5.80;99.90
27544;DHT22;17996;51.056;3.656;2023-02-28T10:45:16;5.90;99.90
27544;DHT22;17996;51.056;3.656;2023-02-28T10:47:54;6.00;99.90
27544;DHT22;17996;51.056;3.656;2023-02-28T10:53:14;6.30;99.90
27544;DHT22;17996;51.056;3.656;2023-02-28T10:55:41;6.00;99.90
27544;DHT22;17996;51.056;3.656;2023-02-28T10:58:42;5.80;99.90
27544;DHT22;17996;51.056;3.656;2023-02-28T11:03:52;6.00;99.90
27544;DHT22;17996;51.056;3.656;2023-02-28T11:06:25;6.20;99.90
27544;DHT22;17996;51.056;3.656;2023-02-28T11:09:33;6.30;99.90
27544;DHT22;17996;51.056;3.656;2023-02-28T11:12:01;6.40;99.90
27544;DHT22;17996;51.056;3.656;2023-02-28T11:14:35;6.20;99.90
27544;DHT22;17996;51.056;3.656;2023-02-28T11:17:34;6.20;99.90
27544;DHT22;17996;51.056;3.656;2023-02-28T11:20:05;6.20;99.90
27544;DHT22;17996;51.056;3.656;2023-02-28T11:22:39;6.20;99.90
27544;DHT22;17996;51.056;3.656;2023-02-28T11:25:29;6.20;99.90
27544;DHT22;17996;51.056;3.656;2023-02-28T11:27:57;6.20;99.90
27544;DHT22;17996;51.056;3.656;2023-02-28T11:30:37;6.30;99.90
27544;DHT22;17996;51.056;3.656;2023-02-28T11:33:31;6.20;99.90
27544;DHT22;17996;51.056;3.656;2023-02-28T11:36:02;6.20;99.90
27544;DHT22;17996;51.056;3.656;2023-02-28T11:38:28;6.10;99.90
27544;DHT22;17996;51.056;3.656;2023-02-28T11:43:39;6.20;99.90
27544;DHT22;17996;51.056;3.656;2023-02-28T11:48:51;6.00;99.90
27544;DHT22;17996;51.056;3.656;2023-02-28T11:51:53;6.00;99.90
27544;DHT22;17996;51.056;3.656;2023-02-28T11:57:33;5.80;99.90
27544;DHT22;17996;51.056;3.656;2023-02-28T12:05:39;5.60;99.90
27544;DHT22;17996;51.056;3.656;2023-02-28T12:13:45;5.80;99.90
27544;DHT22;17996;51.056;3.656;2023-02-28T12:19:20;5.90;99.90
27544;DHT22;17996;51.056;3.656;2023-02-28T12:24:37;5.80;99.90
27544;DHT22;17996;51.056;3.656;2023-02-28T12:27:10;5.70;99.90
27544;DHT22;17996;51.056;3.656;2023-02-28T12:32:18;5.80;99.90
27544;DHT22;17996;51.056;3.656;2023-02-28T12:37:57;5.90;99.90
27544;DHT22;17996;51.056;3.656;2023-02-28T12:40:23;5.90;99.90
27544;DHT22;17996;51.056;3.656;2023-02-28T12:42:56;6.00;99.90
27544;DHT22;17996;51.056;3.656;2023-02-28T12:45:26;6.00;99.90
27544;DHT22;17996;51.056;3.656;2023-02-28T12:47:59;6.00;99.90
27544;DHT22;17996;51.056;3.656;2023-02-28T12:50:26;5.90;99.90
27544;DHT22;17996;51.056;3.656;2023-02-28T12:52:57;5.90;99.90
27544;DHT22;17996;51.056;3.656;2023-02-28T12:55:35;5.90;99.90
27544;DHT22;17996;51.056;3.656;2023-02-28T13:09:17;6.10;99.90
27544;DHT22;17996;51.056;3.656;2023-02-28T13:11:53;6.20;99.90
27544;DHT22;17996;51.056;3.656;2023-02-28T13:14:21;6.20;99.90
27544;DHT22;17996;51.056;3.656;2023-02-28T13:19:17;6.10;99.90
27544;DHT22;17996;51.056;3.656;2023-02-28T13:21:44;6.10;99.90
27544;DHT22;17996;51.056;3.656;2023-02-28T13:24:11;6.00;99.90
27544;DHT22;17996;51.056;3.656;2023-02-28T13:29:35;6.00;99.90
27544;DHT22;17996;51.056;3.656;2023-02-28T13:34:49;6.00;99.90
27544;DHT22;17996;51.056;3.656;2023-02-28T13:37:35;6.00;99.90
27544;DHT22;17996;51.056;3.656;2023-02-28T13:42:54;6.00;99.90
27544;DHT22;17996;51.056;3.656;2023-02-28T13:45:25;6.00;99.90
27544;DHT22;17996;51.056;3.656;2023-02-28T13:50:40;6.20;99.60
27544;DHT22;17996;51.056;3.656;2023-02-28T14:01:29;6.10;98.00
27544;DHT22;17996;51.056;3.656;2023-02-28T14:06:35;6.10;99.00
27544;DHT22;17996;51.056;3.656;2023-02-28T14:09:06;6.20;98.60
27544;DHT22;17996;51.056;3.656;2023-02-28T14:11:41;6.20;98.60
27544;DHT22;17996;51.056;3.656;2023-02-28T14:14:09;6.20;99.10
27544;DHT22;17996;51.056;3.656;2023-02-28T14:16:55;6.20;98.80
27544;DHT22;17996;51.056;3.656;2023-02-28T14:19:27;6.40;98.60
27544;DHT22;17996;51.056;3.656;2023-02-28T14:25:16;6.30;98.30
27544;DHT22;17996;51.056;3.656;2023-02-28T14:31:09;6.40;98.90
27544;DHT22;17996;51.056;3.656;2023-02-28T14:33:57;6.40;97.40
27544;DHT22;17996;51.056;3.656;2023-02-28T14:36:30;6.40;98.40
27544;DHT22;17996;51.056;3.656;2023-02-28T14:39:00;6.40;97.80
27544;DHT22;17996;51.056;3.656;2023-02-28T14:41:31;6.40;97.80
27544;DHT22;17996;51.056;3.656;2023-02-28T14:43:59;6.40;97.90
27544;DHT22;17996;51.056;3.656;2023-02-28T14:46:35;6.40;96.80
27544;DHT22;17996;51.056;3.656;2023-02-28T14:49:01;6.40;98.50
27544;DHT22;17996;51.056;3.656;2023-02-28T14:51:28;6.50;98.00
27544;DHT22;17996;51.056;3.656;2023-02-28T14:54:00;6.70;98.20
27544;DHT22;17996;51.056;3.656;2023-02-28T14:56:34;6.80;97.60
27544;DHT22;17996;51.056;3.656;2023-02-28T14:59:00;6.80;97.80
27544;DHT22;17996;51.056;3.656;2023-02-28T15:01:26;6.70;96.90
27544;DHT22;17996;51.056;3.656;2023-02-28T15:04:03;6.80;98.30
27544;DHT22;17996;51.056;3.656;2023-02-28T15:06:29;7.00;97.50
27544;DHT22;17996;51.056;3.656;2023-02-28T15:09:15;7.10;96.60
27544;DHT22;17996;51.056;3.656;2023-02-28T15:11:41;7.20;97.80
27544;DHT22;17996;51.056;3.656;2023-02-28T15:14:15;7.40;97.80
27544;DHT22;17996;51.056;3.656;2023-02-28T15:16:43;7.50;97.70
27544;DHT22;17996;51.056;3.656;2023-02-28T15:19:30;7.60;97.40
27544;DHT22;17996;51.056;3.656;2023-02-28T15:22:12;7.80;96.40
27544;DHT22;17996;51.056;3.656;2023-02-28T15:24:45;7.60;94.60
27544;DHT22;17996;51.056;3.656;2023-02-28T15:27:20;7.70;96.30
27544;DHT22;17996;51.056;3.656;2023-02-28T15:29:54;7.80;96.40
27544;DHT22;17996;51.056;3.656;2023-02-28T15:34:50;7.80;95.40
27544;DHT22;17996;51.056;3.656;2023-02-28T15:40:24;8.10;95.50
27544;DHT22;17996;51.056;3.656;2023-02-28T15:45:48;8.30;95.50
27544;DHT22;17996;51.056;3.656;2023-02-28T15:50:50;8.30;95.50
27544;DHT22;17996;51.056;3.656;2023-02-28T15:53:20;8.40;95.70
27544;DHT22;17996;51.056;3.656;2023-02-28T15:55:54;8.40;95.80
27544;DHT22;17996;51.056;3.656;2023-02-28T15:58:22;8.50;95.00
27544;DHT22;17996;51.056;3.656;2023-02-28T16:03:47;8.60;94.70
27544;DHT22;17996;51.056;3.656;2023-02-28T16:08:42;8.40;94.70
27544;DHT22;17996;51.056;3.656;2023-02-28T16:11:11;8.20;94.90
27544;DHT22;17996;51.056;3.656;2023-02-28T16:13:37;8.10;94.10
27544;DHT22;17996;51.056;3.656;2023-02-28T16:16:03;8.20;96.20
27544;DHT22;17996;51.056;3.656;2023-02-28T16:18:29;8.20;95.20
27544;DHT22;17996;51.056;3.656;2023-02-28T16:20:54;8.20;95.90
27544;DHT22;17996;51.056;3.656;2023-02-28T16:23:20;7.90;95.30
27544;DHT22;17996;51.056;3.656;2023-02-28T16:25:46;7.70;95.10
27544;DHT22;17996;51.056;3.656;2023-02-28T16:28:25;7.60;94.80
27544;DHT22;17996;51.056;3.656;2023-02-28T16:30:55;7.50;95.10
27544;DHT22;17996;51.056;3.656;2023-02-28T16:33:20;7.60;95.30
27544;DHT22;17996;51.056;3.656;2023-02-28T16:35:46;7.40;96.90
27544;DHT22;17996;51.056;3.656;2023-02-28T16:38:12;7.50;96.10
27544;DHT22;17996;51.056;3.656;2023-02-28T16:40:37;7.40;96.70
27544;DHT22;17996;51.056;3.656;2023-02-28T16:43:24;7.40;95.70
27544;DHT22;17996;51.056;3.656;2023-02-28T16:45:55;7.40;97.90
27544;DHT22;17996;51.056;3.656;2023-02-28T16:48:22;7.30;98.60
27544;DHT22;17996;51.056;3.656;2023-02-28T16:50:49;7.30;96.80
27544;DHT22;17996;51.056;3.656;2023-02-28T16:53:14;7.10;96.30
27544;DHT22;17996;51.056;3.656;2023-02-28T16:55:40;7.10;97.90
27544;DHT22;17996;51.056;3.656;2023-02-28T16:58:10;7.00;96.50
27544;DHT22;17996;51.056;3.656;2023-02-28T17:00:37;6.80;97.30
27544;DHT22;17996;51.056;3.656;2023-02-28T17:03:02;6.70;97.50
27544;DHT22;17996;51.056;3.656;2023-02-28T17:05:34;6.50;97.00
27544;DHT22;17996;51.056;3.656;2023-02-28T17:08:02;6.40;98.90
27544;DHT22;17996;51.056;3.656;2023-02-28T17:10:29;6.30;98.50
27544;DHT22;17996;51.056;3.656;2023-02-28T17:12:54;6.20;98.70
27544;DHT22;17996;51.056;3.656;2023-02-28T17:15:20;6.10;98.50
27544;DHT22;17996;51.056;3.656;2023-02-28T17:17:47;6.10;98.70
27544;DHT22;17996;51.056;3.656;2023-02-28T17:20:21;6.00;98.00
27544;DHT22;17996;51.056;3.656;2023-02-28T17:22:52;5.90;98.60
27544;DHT22;17996;51.056;3.656;2023-02-28T17:25:18;5.90;99.50
27544;DHT22;17996;51.056;3.656;2023-02-28T17:27:44;5.90;99.10
27544;DHT22;17996;51.056;3.656;2023-02-28T17:30:19;5.80;99.50
27544;DHT22;17996;51.056;3.656;2023-02-28T17:32:45;5.70;99.30
27544;DHT22;17996;51.056;3.656;2023-02-28T17:35:11;5.60;99.90
27544;DHT22;17996;51.056;3.656;2023-02-28T17:37:37;5.60;98.80
27544;DHT22;17996;51.056;3.656;2023-02-28T17:40:03;5.50;99.90
27544;DHT22;17996;51.056;3.656;2023-02-28T17:42:29;5.50;99.90
27544;DHT22;17996;51.056;3.656;2023-02-28T17:44:55;5.70;99.90
27544;DHT22;17996;51.056;3.656;2023-02-28T17:47:20;5.40;99.90
27544;DHT22;17996;51.056;3.656;2023-02-28T17:49:46;5.40;99.90
27544;DHT22;17996;51.056;3.656;2023-02-28T17:52:12;5.50;99.90
27544;DHT22;17996;51.056;3.656;2023-02-28T17:54:37;5.30;99.90
27544;DHT22;17996;51.056;3.656;2023-02-28T17:57:03;5.50;99.90
27544;DHT22;17996;51.056;3.656;2023-02-28T17:59:29;5.20;99.90
27544;DHT22;17996;51.056;3.656;2023-02-28T18:02:01;5.20;99.90
27544;DHT22;17996;51.056;3.656;2023-02-28T18:04:27;5.10;99.90
27544;DHT22;17996;51.056;3.656;2023-02-28T18:06:52;5.10;99.90
27544;DHT22;17996;51.056;3.656;2023-02-28T18:09:22;5.10;99.90
27544;DHT22;17996;51.056;3.656;2023-02-28T18:11:48;5.20;99.90
27544;DHT22;17996;51.056;3.656;2023-02-28T18:14:18;5.00;99.90
27544;DHT22;17996;51.056;3.656;2023-02-28T18:16:45;5.00;99.90